createdAt,value
2023-05-19T00:02:09.426Z,89.06
2023-05-19T00:04:37.138Z,89.86
2023-05-19T00:07:05.638Z,89.68
2023-05-19T00:09:32.749Z,89.38
2023-05-19T00:11:59.859Z,89.70
2023-05-19T00:14:26.912Z,88.86
2023-05-19T00:16:56.303Z,88.74
2023-05-19T00:19:24.538Z,88.20
2023-05-19T00:21:51.505Z,89.08
2023-05-19T00:24:18.223Z,88.05
2023-05-19T00:26:44.902Z,88.53
2023-05-19T00:29:18.541Z,88.11
2023-05-19T00:31:48.273Z,88.89
2023-05-19T00:34:15.821Z,89.31
2023-05-19T00:36:42.767Z,88.65
2023-05-19T00:39:09.797Z,86.88
2023-05-19T00:41:36.800Z,87.12
2023-05-19T00:44:03.872Z,88.36
2023-05-19T00:46:31.079Z,86.81
2023-05-19T00:48:58.232Z,86.87
2023-05-19T00:51:34.178Z,87.00
2023-05-19T00:54:01.467Z,88.54
2023-05-19T00:56:28.980Z,88.47
2023-05-19T00:59:00.817Z,87.65
2023-05-19T01:01:28.009Z,88.44
2023-05-19T01:03:59.100Z,88.86
2023-05-19T01:06:29.690Z,88.18
2023-05-19T01:08:57.480Z,87.86
2023-05-19T01:11:24.176Z,88.93
2023-05-19T01:13:50.918Z,89.88
2023-05-19T01:16:20.497Z,90.12
2023-05-19T01:19:10.907Z,89.69
2023-05-19T01:21:44.511Z,89.34
2023-05-19T01:24:18.284Z,89.60
2023-05-19T01:27:17.677Z,89.80
2023-05-19T01:30:17.317Z,89.81
2023-05-19T01:32:45.536Z,90.29
2023-05-19T01:35:15.580Z,90.81
2023-05-19T01:37:42.645Z,91.07
2023-05-19T01:40:10.116Z,91.45
2023-05-19T01:42:39.853Z,90.92
2023-05-19T01:45:10.621Z,91.26
2023-05-19T01:47:42.113Z,92.02
2023-05-19T01:50:10.031Z,91.74
2023-05-19T01:52:36.668Z,91.21
2023-05-19T01:55:03.650Z,91.41
2023-05-19T01:57:36.214Z,90.99
2023-05-19T02:00:21.546Z,90.86
2023-05-19T02:03:19.251Z,90.68
2023-05-19T02:05:55.585Z,90.88
2023-05-19T02:08:44.359Z,90.70
2023-05-19T02:11:27.407Z,90.64
2023-05-19T02:13:56.467Z,90.83
2023-05-19T02:16:28.730Z,90.82
2023-05-19T02:18:56.496Z,91.07
2023-05-19T02:21:23.075Z,91.37
2023-05-19T02:23:50.761Z,92.63
2023-05-19T02:26:19.958Z,92.50
2023-05-19T02:28:56.320Z,92.53
2023-05-19T02:31:24.853Z,92.86
2023-05-19T02:33:51.693Z,92.27
2023-05-19T02:36:19.123Z,92.16
2023-05-19T02:38:45.839Z,93.19
2023-05-19T02:41:12.488Z,93.07
2023-05-19T02:43:39.410Z,93.09
2023-05-19T02:46:06.221Z,92.94
2023-05-19T02:48:33.133Z,93.13
2023-05-19T02:50:59.806Z,93.33
2023-05-19T02:53:27.046Z,93.70
2023-05-19T02:55:53.776Z,93.62
2023-05-19T02:58:20.751Z,92.53
2023-05-19T03:00:47.902Z,93.29
2023-05-19T03:03:15.138Z,92.94
2023-05-19T03:05:43.150Z,91.79
2023-05-19T03:08:09.874Z,92.32
2023-05-19T03:10:36.724Z,92.49
2023-05-19T03:13:03.433Z,92.12
2023-05-19T03:15:30.600Z,92.54
2023-05-19T03:17:57.532Z,91.65
2023-05-19T03:20:24.596Z,92.18
2023-05-19T03:22:51.383Z,91.72
2023-05-19T03:25:18.888Z,91.82
2023-05-19T03:27:45.707Z,92.42
2023-05-19T03:30:12.977Z,93.26
2023-05-19T03:32:52.578Z,92.87
2023-05-19T03:35:19.511Z,93.37
2023-05-19T03:37:46.415Z,93.05
2023-05-19T03:40:13.663Z,93.34
2023-05-19T03:42:42.886Z,93.36
2023-05-19T03:45:09.897Z,93.19
2023-05-19T03:47:36.733Z,94.15
2023-05-19T03:50:23.446Z,92.88
2023-05-19T03:52:53.618Z,93.48
2023-05-19T03:55:29.922Z,93.44
2023-05-19T03:57:57.158Z,93.58
2023-05-19T04:00:24.005Z,94.02
2023-05-19T04:02:51.270Z,94.35
2023-05-19T04:05:17.960Z,94.29
2023-05-19T04:07:46.646Z,94.25
2023-05-19T04:10:13.865Z,94.28
2023-05-19T04:12:40.680Z,93.58
2023-05-19T04:15:08.241Z,93.88
2023-05-19T04:17:35.181Z,94.11
2023-05-19T04:20:01.869Z,94.49
2023-05-19T04:22:28.584Z,94.52
2023-05-19T04:24:56.219Z,94.13
2023-05-19T04:27:24.226Z,94.27
2023-05-19T04:29:51.163Z,94.39
2023-05-19T04:32:18.056Z,94.45
2023-05-19T04:34:46.008Z,94.33
2023-05-19T04:37:17.909Z,93.38
2023-05-19T04:39:45.478Z,94.20
2023-05-19T04:42:13.361Z,93.56
2023-05-19T04:44:41.989Z,93.93
2023-05-19T04:47:09.192Z,94.01
2023-05-19T04:49:39.042Z,93.47
2023-05-19T04:52:11.165Z,94.02
2023-05-19T04:54:39.650Z,93.96
2023-05-19T04:57:06.951Z,93.70
2023-05-19T04:59:37.368Z,93.71
2023-05-19T05:02:06.854Z,93.44
2023-05-19T05:04:36.260Z,93.53
2023-05-19T05:07:03.107Z,93.35
2023-05-19T05:09:29.938Z,93.53
2023-05-19T05:12:01.538Z,93.84
2023-05-19T05:14:28.828Z,93.88
2023-05-19T05:16:55.999Z,93.47
2023-05-19T05:19:26.421Z,93.09
2023-05-19T05:21:54.332Z,92.87
2023-05-19T05:24:21.476Z,93.08
2023-05-19T05:26:53.560Z,92.42
2023-05-19T05:29:21.092Z,92.99
2023-05-19T05:31:47.790Z,92.87
2023-05-19T05:34:14.595Z,93.28
2023-05-19T05:36:43.112Z,92.95
2023-05-19T05:39:10.199Z,92.36
2023-05-19T05:41:38.126Z,92.43
2023-05-19T05:44:10.915Z,92.50
2023-05-19T05:46:40.326Z,92.07
2023-05-19T05:49:07.534Z,92.46
2023-05-19T05:51:34.664Z,91.77
2023-05-19T05:54:03.178Z,92.32
2023-05-19T05:56:37.375Z,92.37
2023-05-19T05:59:07.187Z,92.12
2023-05-19T06:01:36.586Z,92.20
2023-05-19T06:04:05.242Z,91.93
2023-05-19T06:06:32.707Z,92.25
2023-05-19T06:09:01.613Z,91.76
2023-05-19T06:11:29.094Z,92.33
2023-05-19T06:13:58.040Z,92.48
2023-05-19T06:16:56.953Z,92.36
2023-05-19T06:19:25.437Z,91.66
2023-05-19T06:21:52.672Z,91.43
2023-05-19T06:24:19.411Z,91.62
2023-05-19T06:26:47.376Z,91.15
2023-05-19T06:29:14.928Z,90.66
2023-05-19T06:31:41.956Z,90.75
2023-05-19T06:34:12.538Z,90.45
2023-05-19T06:36:41.351Z,90.42
2023-05-19T06:39:08.732Z,90.29
2023-05-19T06:41:35.825Z,90.45
2023-05-19T06:44:04.053Z,90.07
2023-05-19T06:46:33.181Z,89.51
2023-05-19T06:49:00.500Z,89.45
2023-05-19T06:51:31.449Z,89.92
2023-05-19T06:54:00.905Z,89.34
2023-05-19T06:56:29.062Z,89.31
2023-05-19T06:58:56.036Z,88.70
2023-05-19T07:01:27.996Z,89.08
2023-05-19T07:03:56.174Z,89.35
2023-05-19T07:06:22.902Z,88.14
2023-05-19T07:08:50.787Z,89.29
2023-05-19T07:11:18.742Z,89.33
2023-05-19T07:13:45.341Z,89.14
2023-05-19T07:16:14.319Z,89.16
2023-05-19T07:18:41.117Z,89.01
2023-05-19T07:21:08.001Z,88.61
2023-05-19T07:23:34.821Z,89.35
2023-05-19T07:26:01.565Z,89.62
2023-05-19T07:28:28.203Z,89.36
2023-05-19T07:30:54.809Z,89.79
2023-05-19T07:33:21.464Z,89.60
2023-05-19T07:35:48.494Z,89.81
2023-05-19T07:38:15.148Z,90.45
2023-05-19T07:40:41.862Z,90.61
2023-05-19T07:43:08.552Z,90.50
2023-05-19T07:45:35.333Z,90.45
2023-05-19T07:48:02.050Z,89.95
2023-05-19T07:50:28.793Z,91.02
2023-05-19T07:52:56.524Z,91.21
2023-05-19T07:55:23.257Z,91.24
2023-05-19T07:57:50.888Z,91.39
2023-05-19T08:00:17.877Z,91.40
2023-05-19T08:02:45.190Z,91.57
2023-05-19T08:05:11.981Z,90.36
2023-05-19T08:07:38.726Z,90.90
2023-05-19T08:10:05.730Z,91.13
2023-05-19T08:12:32.398Z,91.13
2023-05-19T08:15:01.185Z,90.35
2023-05-19T08:17:28.382Z,91.53
2023-05-19T08:19:55.137Z,90.82
2023-05-19T08:22:21.775Z,91.78
2023-05-19T08:24:49.769Z,91.47
2023-05-19T08:27:16.658Z,91.20
2023-05-19T08:29:43.606Z,91.87
2023-05-19T08:32:12.971Z,90.95
2023-05-19T08:34:39.988Z,91.23
2023-05-19T08:37:07.547Z,91.29
2023-05-19T08:39:34.918Z,90.64
2023-05-19T08:42:02.433Z,90.21
2023-05-19T08:44:30.786Z,90.35
2023-05-19T08:47:02.915Z,90.85
2023-05-19T08:49:33.557Z,91.20
2023-05-19T08:52:16.521Z,89.23
2023-05-19T08:54:53.291Z,90.35
2023-05-19T08:57:21.800Z,90.63
2023-05-19T08:59:51.152Z,90.12
2023-05-19T09:02:18.721Z,91.03
2023-05-19T09:04:48.100Z,90.01
2023-05-19T09:07:15.874Z,89.24
2023-05-19T09:09:43.813Z,88.93
2023-05-19T09:12:11.639Z,88.96
2023-05-19T09:14:38.683Z,88.78
2023-05-19T09:17:06.000Z,89.17
2023-05-19T09:19:33.112Z,89.16
2023-05-19T09:22:01.411Z,88.41
2023-05-19T09:24:28.693Z,88.87
2023-05-19T09:27:00.220Z,89.09
2023-05-19T09:29:27.259Z,89.20
2023-05-19T09:32:00.404Z,89.28
2023-05-19T09:34:27.798Z,88.83
2023-05-19T09:36:54.520Z,89.65
2023-05-19T09:39:23.060Z,89.07
2023-05-19T09:41:54.725Z,89.23
2023-05-19T09:44:33.064Z,89.57
2023-05-19T09:47:00.098Z,89.22
2023-05-19T09:49:32.975Z,88.84
2023-05-19T09:52:03.251Z,89.93
2023-05-19T09:54:32.163Z,89.53
2023-05-19T09:57:00.480Z,89.42
2023-05-19T09:59:32.071Z,89.08
2023-05-19T10:02:01.373Z,89.88
2023-05-19T10:04:30.025Z,89.67
2023-05-19T10:07:01.592Z,88.82
2023-05-19T10:09:29.954Z,88.85
2023-05-19T10:11:58.184Z,89.07
2023-05-19T10:14:27.227Z,89.86
2023-05-19T10:16:59.059Z,89.69
2023-05-19T10:19:29.408Z,89.61
2023-05-19T10:21:57.000Z,89.25
2023-05-19T10:24:23.789Z,89.09
2023-05-19T10:27:03.624Z,88.95
2023-05-19T10:29:34.732Z,89.27
2023-05-19T10:32:08.283Z,88.67
2023-05-19T10:34:59.535Z,89.46
2023-05-19T10:37:29.219Z,89.92
2023-05-19T10:39:57.794Z,90.19
2023-05-19T10:42:38.130Z,89.24
2023-05-19T10:45:19.934Z,88.38
2023-05-19T10:47:46.905Z,88.18
2023-05-19T10:50:13.831Z,88.23
2023-05-19T10:52:41.064Z,88.00
2023-05-19T10:55:10.258Z,88.17
2023-05-19T10:57:37.183Z,88.60
2023-05-19T11:00:25.599Z,88.92
2023-05-19T11:02:56.308Z,87.63
2023-05-19T11:05:29.446Z,88.46
2023-05-19T11:08:02.395Z,89.18
2023-05-19T11:10:29.304Z,89.17
2023-05-19T11:12:58.280Z,89.58
2023-05-19T11:15:28.965Z,89.08
2023-05-19T11:17:56.100Z,88.73
2023-05-19T11:20:27.303Z,88.99
2023-05-19T11:23:19.095Z,88.16
2023-05-19T11:25:51.587Z,87.77
2023-05-19T11:28:20.144Z,87.57
2023-05-19T11:30:52.317Z,86.24
2023-05-19T11:33:20.979Z,87.14
2023-05-19T11:35:50.355Z,86.46
2023-05-19T11:38:18.872Z,87.55
2023-05-19T11:40:47.800Z,87.65
2023-05-19T11:43:14.525Z,86.21
2023-05-19T11:45:41.420Z,86.62
2023-05-19T11:48:12.582Z,85.50
2023-05-19T11:50:43.985Z,85.02
2023-05-19T11:53:15.053Z,85.38
2023-05-19T11:55:44.364Z,86.14
2023-05-19T11:58:11.326Z,85.21
2023-05-19T12:00:40.500Z,85.35
2023-05-19T12:03:09.346Z,85.11
2023-05-19T12:05:48.939Z,86.24
2023-05-19T12:08:19.490Z,85.56
2023-05-19T12:10:52.324Z,87.42
2023-05-19T12:13:19.475Z,87.00
2023-05-19T12:15:46.326Z,86.01
2023-05-19T12:18:13.169Z,86.37
2023-05-19T12:20:40.040Z,86.94
2023-05-19T12:23:07.532Z,86.01
2023-05-19T12:25:34.614Z,86.62
2023-05-19T12:28:05.178Z,86.75
2023-05-19T12:30:33.160Z,87.42
2023-05-19T12:33:02.022Z,86.34
2023-05-19T12:35:31.836Z,86.63
2023-05-19T12:38:03.595Z,85.36
2023-05-19T12:40:30.448Z,86.13
2023-05-19T12:42:59.100Z,85.50
2023-05-19T12:45:29.696Z,85.88
2023-05-19T12:47:56.728Z,85.03
2023-05-19T12:50:30.129Z,85.37
2023-05-19T12:52:58.421Z,84.37
2023-05-19T12:55:25.376Z,83.37
2023-05-19T12:57:55.049Z,82.56
2023-05-19T13:00:25.895Z,83.18
2023-05-19T13:03:01.540Z,84.12
2023-05-19T13:05:37.222Z,83.58
2023-05-19T13:08:09.234Z,83.31
2023-05-19T13:10:37.749Z,83.56
2023-05-19T13:13:06.819Z,84.09
2023-05-19T13:15:35.410Z,84.12
2023-05-19T13:18:06.432Z,85.05
2023-05-19T13:20:34.398Z,84.64
2023-05-19T13:23:03.244Z,83.92
2023-05-19T13:25:29.998Z,84.11
2023-05-19T13:27:56.854Z,83.33
2023-05-19T13:30:24.363Z,82.41
2023-05-19T13:32:52.517Z,83.42
2023-05-19T13:35:20.002Z,80.64
2023-05-19T13:37:46.772Z,81.63
2023-05-19T13:40:13.729Z,81.73
2023-05-19T13:42:43.596Z,81.89
2023-05-19T13:45:10.802Z,81.91
2023-05-19T13:47:38.759Z,82.23
2023-05-19T13:50:06.359Z,80.98
2023-05-19T13:52:33.484Z,82.30
2023-05-19T13:55:00.527Z,81.34
2023-05-19T13:57:27.206Z,82.49
2023-05-19T14:00:02.623Z,83.05
2023-05-19T14:02:40.022Z,82.54
2023-05-19T14:05:07.536Z,82.32
2023-05-19T14:07:37.070Z,82.13
2023-05-19T14:10:06.375Z,81.96
2023-05-19T14:12:44.921Z,82.57
2023-05-19T14:15:19.675Z,83.05
2023-05-19T14:17:46.488Z,82.97
2023-05-19T14:20:13.285Z,84.45
2023-05-19T14:22:40.221Z,85.01
2023-05-19T14:25:07.548Z,86.00
2023-05-19T14:27:34.172Z,86.00
2023-05-19T14:30:00.960Z,85.76
2023-05-19T14:32:30.026Z,85.36
2023-05-19T14:34:57.177Z,85.31
2023-05-19T14:37:24.234Z,85.50
2023-05-19T14:39:50.934Z,85.19
2023-05-19T14:42:17.531Z,86.26
2023-05-19T14:44:44.555Z,85.30
2023-05-19T14:47:12.450Z,85.50
2023-05-19T14:49:39.304Z,85.68
2023-05-19T14:52:06.213Z,86.49
2023-05-19T14:54:34.003Z,85.38
2023-05-19T14:57:01.630Z,85.03
2023-05-19T14:59:29.598Z,85.05
2023-05-19T15:01:56.288Z,85.08
2023-05-19T15:04:23.106Z,85.51
2023-05-19T15:06:58.172Z,86.50
2023-05-19T15:09:32.355Z,85.64
2023-05-19T15:12:01.204Z,85.45
2023-05-19T15:14:30.179Z,86.03
2023-05-19T15:16:57.560Z,87.33
2023-05-19T15:19:24.442Z,86.76
2023-05-19T15:21:51.270Z,86.09
2023-05-19T15:24:18.049Z,86.29
2023-05-19T15:26:45.437Z,85.82
2023-05-19T15:29:12.079Z,86.85
2023-05-19T15:31:38.745Z,87.37
2023-05-19T15:34:05.621Z,85.81
2023-05-19T15:36:32.229Z,86.59
2023-05-19T15:38:58.993Z,86.81
2023-05-19T15:41:25.907Z,87.96
2023-05-19T15:43:53.649Z,87.39
2023-05-19T15:46:20.325Z,87.61
2023-05-19T15:48:47.019Z,87.32
2023-05-19T15:51:13.927Z,88.05
2023-05-19T15:53:40.672Z,87.54
2023-05-19T15:56:07.467Z,87.30
2023-05-19T15:58:34.316Z,86.71
2023-05-19T16:01:01.189Z,87.04
2023-05-19T16:03:28.019Z,87.03
2023-05-19T16:05:54.809Z,86.63
2023-05-19T16:08:21.726Z,87.49
2023-05-19T16:10:48.520Z,86.56
2023-05-19T16:13:15.278Z,87.37
2023-05-19T16:15:42.016Z,85.89
2023-05-19T16:18:08.704Z,86.68
2023-05-19T16:20:35.535Z,86.17
2023-05-19T16:23:03.242Z,86.36
2023-05-19T16:25:30.149Z,86.22
2023-05-19T16:27:57.287Z,86.75
2023-05-19T16:30:26.227Z,87.55
2023-05-19T16:32:56.127Z,87.06
2023-05-19T16:35:23.616Z,86.84
2023-05-19T16:37:50.356Z,87.37
2023-05-19T16:40:17.417Z,87.69
2023-05-19T16:42:44.059Z,88.39
2023-05-19T16:45:11.004Z,88.36
2023-05-19T16:47:37.739Z,87.64
2023-05-19T16:50:04.761Z,86.84
2023-05-19T16:52:31.436Z,86.81
2023-05-19T16:54:58.167Z,86.40
2023-05-19T16:57:24.860Z,86.60
2023-05-19T16:59:51.600Z,87.01
2023-05-19T17:02:18.542Z,87.71
2023-05-19T17:04:45.367Z,87.58
2023-05-19T17:07:15.578Z,88.31
2023-05-19T17:09:43.158Z,87.07
2023-05-19T17:12:10.873Z,87.41
2023-05-19T17:14:37.636Z,87.51
2023-05-19T17:17:04.506Z,86.93
2023-05-19T17:19:31.439Z,87.83
2023-05-19T17:21:58.126Z,87.31
2023-05-19T17:24:24.862Z,87.68
2023-05-19T17:26:51.546Z,87.67
2023-05-19T17:29:18.350Z,87.17
2023-05-19T17:31:45.243Z,88.07
2023-05-19T17:34:12.146Z,88.18
2023-05-19T17:36:38.755Z,88.83
2023-05-19T17:39:05.536Z,88.45
2023-05-19T17:41:32.237Z,89.36
2023-05-19T17:43:58.889Z,89.89
2023-05-19T17:46:25.675Z,89.22
2023-05-19T17:48:52.396Z,89.94
2023-05-19T17:51:19.283Z,90.08
2023-05-19T17:53:46.646Z,90.09
2023-05-19T17:56:13.974Z,90.35
2023-05-19T17:58:41.347Z,90.33
2023-05-19T18:01:08.612Z,90.31
2023-05-19T18:03:35.945Z,91.19
2023-05-19T18:06:02.926Z,91.82
2023-05-19T18:08:31.158Z,91.02
2023-05-19T18:10:58.183Z,91.04
2023-05-19T18:13:26.036Z,90.73
2023-05-19T18:15:52.955Z,90.87
2023-05-19T18:18:19.758Z,90.33
2023-05-19T18:20:46.473Z,90.66
2023-05-19T18:23:13.128Z,90.12
2023-05-19T18:25:39.765Z,89.66
2023-05-19T18:28:06.557Z,88.36
2023-05-19T18:30:33.312Z,87.85
2023-05-19T18:33:03.561Z,87.59
2023-05-19T18:35:30.462Z,88.31
2023-05-19T18:37:57.405Z,87.81
2023-05-19T18:40:24.475Z,88.24
2023-05-19T18:42:53.931Z,87.08
2023-05-19T18:45:20.865Z,86.93
2023-05-19T18:47:47.578Z,87.63
2023-05-19T18:50:14.585Z,88.68
2023-05-19T18:52:41.371Z,88.27
2023-05-19T18:55:08.488Z,88.10
2023-05-19T18:57:35.239Z,88.25
2023-05-19T19:00:02.138Z,88.29
2023-05-19T19:02:28.829Z,87.92
2023-05-19T19:04:55.758Z,87.79
2023-05-19T19:07:25.098Z,88.15
2023-05-19T19:09:51.756Z,88.37
2023-05-19T19:12:20.198Z,88.98
2023-05-19T19:14:47.220Z,89.42
2023-05-19T19:17:14.199Z,88.26
2023-05-19T19:19:41.317Z,88.45
2023-05-19T19:22:08.145Z,89.13
2023-05-19T19:24:35.830Z,89.21
2023-05-19T19:27:02.557Z,89.32
2023-05-19T19:29:29.341Z,89.21
2023-05-19T19:31:56.297Z,89.63
2023-05-19T19:34:23.006Z,90.29
2023-05-19T19:36:49.778Z,89.91
2023-05-19T19:39:16.800Z,89.96
2023-05-19T19:41:43.386Z,90.81
2023-05-19T19:44:10.075Z,91.20
2023-05-19T19:46:36.767Z,90.73
2023-05-19T19:49:03.547Z,90.79
2023-05-19T19:51:31.571Z,89.98
2023-05-19T19:53:58.679Z,90.10
2023-05-19T19:56:27.392Z,90.54
2023-05-19T19:58:56.921Z,89.05
2023-05-19T20:01:27.889Z,89.97
2023-05-19T20:03:55.825Z,90.89
2023-05-19T20:06:22.498Z,90.37
2023-05-19T20:08:49.687Z,90.58
2023-05-19T20:11:17.385Z,90.85
2023-05-19T20:13:44.285Z,90.85
2023-05-19T20:16:11.681Z,91.04
2023-05-19T20:18:39.540Z,91.13
2023-05-19T20:21:06.473Z,90.97
2023-05-19T20:23:33.150Z,91.18
2023-05-19T20:26:10.828Z,91.51
2023-05-19T20:28:39.056Z,91.99
2023-05-19T20:31:06.370Z,92.02
2023-05-19T20:33:33.164Z,92.54
2023-05-19T20:35:59.934Z,92.54
2023-05-19T20:38:26.727Z,93.35
2023-05-19T20:40:54.636Z,93.42
2023-05-19T20:43:21.380Z,93.35
2023-05-19T20:45:48.395Z,93.91
2023-05-19T20:48:18.048Z,93.85
2023-05-19T20:50:44.897Z,93.21
2023-05-19T20:53:11.664Z,93.28
2023-05-19T20:55:39.026Z,93.46
2023-05-19T20:58:05.942Z,92.62
2023-05-19T21:00:32.894Z,93.94
2023-05-19T21:02:59.971Z,93.32
2023-05-19T21:05:26.856Z,93.38
2023-05-19T21:07:53.679Z,93.57
2023-05-19T21:10:20.523Z,93.14
2023-05-19T21:12:47.463Z,92.73
2023-05-19T21:15:14.247Z,93.06
2023-05-19T21:17:40.983Z,92.97
2023-05-19T21:20:08.450Z,92.57
2023-05-19T21:22:36.033Z,93.54
2023-05-19T21:25:02.845Z,93.64
2023-05-19T21:27:29.873Z,93.31
2023-05-19T21:29:56.591Z,93.98
2023-05-19T21:32:23.219Z,94.18
2023-05-19T21:34:50.005Z,94.11
2023-05-19T21:37:17.739Z,93.85
2023-05-19T21:39:45.041Z,93.60
2023-05-19T21:42:11.722Z,93.63
2023-05-19T21:44:38.565Z,93.14
2023-05-19T21:47:05.433Z,93.09
2023-05-19T21:49:32.140Z,93.24
2023-05-19T21:51:58.890Z,93.80
2023-05-19T21:54:25.560Z,94.41
2023-05-19T21:56:52.191Z,93.88
2023-05-19T21:59:23.025Z,94.35
2023-05-19T22:01:49.780Z,95.02
2023-05-19T22:04:18.494Z,94.64
2023-05-19T22:06:45.560Z,94.38
2023-05-19T22:09:12.853Z,94.73
2023-05-19T22:11:40.199Z,95.04
2023-05-19T22:14:07.014Z,94.80
2023-05-19T22:16:34.115Z,94.22
2023-05-19T22:19:00.912Z,94.51
2023-05-19T22:21:27.714Z,93.56
2023-05-19T22:23:54.465Z,93.17
2023-05-19T22:26:21.982Z,92.85
2023-05-19T22:28:49.537Z,93.23
2023-05-19T22:31:16.692Z,93.20
2023-05-19T22:33:43.397Z,93.00
2023-05-19T22:36:11.050Z,93.05
2023-05-19T22:38:37.883Z,92.56
2023-05-19T22:41:04.776Z,93.02
2023-05-19T22:43:31.583Z,92.91
2023-05-19T22:45:58.283Z,92.56
2023-05-19T22:48:25.132Z,91.47
2023-05-19T22:50:51.810Z,91.93
2023-05-19T22:53:18.479Z,93.10
2023-05-19T22:55:45.236Z,92.72
2023-05-19T22:58:11.841Z,92.92
2023-05-19T23:00:38.424Z,93.34
2023-05-19T23:03:05.188Z,93.71
2023-05-19T23:05:32.021Z,93.57
2023-05-19T23:07:58.851Z,93.77
2023-05-19T23:10:25.622Z,94.10
2023-05-19T23:12:52.252Z,94.07
2023-05-19T23:15:18.978Z,94.55
2023-05-19T23:17:45.670Z,94.10
2023-05-19T23:20:13.086Z,94.74
2023-05-19T23:22:39.730Z,94.78
2023-05-19T23:25:07.743Z,94.70
2023-05-19T23:27:35.851Z,94.58
2023-05-19T23:30:02.615Z,94.84
2023-05-19T23:32:29.373Z,94.81
2023-05-19T23:34:56.134Z,94.85
2023-05-19T23:37:22.903Z,95.13
2023-05-19T23:39:49.630Z,95.15
2023-05-19T23:42:16.355Z,94.23
2023-05-19T23:44:43.006Z,94.06
2023-05-19T23:47:09.777Z,94.18
2023-05-19T23:49:36.539Z,94.70
2023-05-19T23:52:03.350Z,94.57
2023-05-19T23:54:30.544Z,94.65
2023-05-19T23:56:57.340Z,95.21
2023-05-19T23:59:23.989Z,95.03
